Time;durP1;ratioP1;P1;durP2;ratioP2;P2;SDS_P1;SDS_P2;PMS_P1;PMS_P2;Temp;Humidity;BMP_temperature;BMP_pressure;BME280_temperature;BME280_humidity;BME280_pressure;Samples;Min_cycle;Max_cycle;Signal;HPM_P1;HPM_P2
2022/12/06 00:01:36;;;;;;;70.53;20.57;;;;;;;2.06;100.00;147966.03;5051259;28;20099;-69
2022/12/06 00:04:05;;;;;;;64.63;21.03;;;;;;;2.04;100.00;147960.84;5051138;28;20120;-69
2022/12/06 00:06:32;;;;;;;75.10;22.37;;;;;;;2.12;100.00;147981.41;5050865;28;20417;-69
2022/12/06 00:08:59;;;;;;;76.60;22.40;;;;;;;2.15;100.00;147987.84;5054260;28;20067;-69
2022/12/06 00:11:26;;;;;;;91.60;22.73;;;;;;;2.15;100.00;147987.84;5054712;28;20427;-68
2022/12/06 00:13:59;;;;;;;70.50;21.37;;;;;;;2.09;100.00;147972.44;5046812;28;20127;-69
2022/12/06 00:16:26;;;;;;;77.53;22.17;;;;;;;2.17;100.00;147992.97;5055366;28;20075;-69
2022/12/06 00:18:52;;;;;;;81.53;22.93;;;;;;;2.21;100.00;148004.56;5052480;28;20036;-69
2022/12/06 00:21:27;;;;;;;78.10;21.33;;;;;;;2.27;100.00;148018.69;5052439;28;20029;-69
2022/12/06 00:23:58;;;;;;;81.10;21.23;;;;;;;2.30;100.00;148027.72;5055243;28;20021;-68
2022/12/06 00:26:24;;;;;;;76.00;22.60;;;;;;;2.35;100.00;148039.28;5054577;28;20489;-69
2022/12/06 00:28:59;;;;;;;80.37;22.90;;;;;;;2.39;100.00;148048.25;5054573;28;20025;-69
2022/12/06 00:31:26;;;;;;;82.17;23.03;;;;;;;2.44;100.00;148061.16;5054731;28;20043;-69
2022/12/06 00:33:52;;;;;;;73.73;21.80;;;;;;;2.45;100.00;148063.72;5055409;28;20487;-69
2022/12/06 00:36:20;;;;;;;74.70;21.83;;;;;;;2.46;100.00;148066.28;5054318;28;20032;-69
2022/12/06 00:38:46;;;;;;;71.20;21.67;;;;;;;2.50;100.00;148076.56;5055137;28;20400;-69
2022/12/06 00:41:14;;;;;;;76.37;21.73;;;;;;;2.52;100.00;148081.69;5053536;28;20021;-69
2022/12/06 00:43:40;;;;;;;82.13;22.17;;;;;;;2.51;100.00;148080.41;5053853;28;20037;-69
2022/12/06 00:46:07;;;;;;;89.70;21.93;;;;;;;2.55;100.00;148090.72;5055101;28;20267;-69
2022/12/06 00:48:33;;;;;;;107.07;23.13;;;;;;;2.57;100.00;148094.59;5054904;28;20400;-69
2022/12/06 00:50:58;;;;;;;83.23;21.13;;;;;;;2.57;100.00;148095.88;5053118;28;20017;-69
2022/12/06 00:53:24;;;;;;;108.40;23.63;;;;;;;2.62;100.00;148107.44;5054677;28;20032;-69
2022/12/06 00:55:50;;;;;;;91.03;24.17;;;;;;;2.63;100.00;148110.00;5052529;28;20048;-69
2022/12/06 00:58:16;;;;;;;99.80;24.40;;;;;;;2.67;100.00;148120.31;5053555;28;20012;-69
2022/12/06 01:00:42;;;;;;;102.07;26.20;;;;;;;2.69;100.00;148124.16;5053695;28;20051;-69
2022/12/06 01:03:07;;;;;;;96.33;24.13;;;;;;;2.68;100.00;148122.88;5053827;28;20103;-69
2022/12/06 01:05:33;;;;;;;116.57;25.17;;;;;;;2.73;100.00;148135.72;5054493;28;20502;-69
2022/12/06 01:07:58;;;;;;;109.43;25.27;;;;;;;2.72;100.00;148133.16;5053740;28;20034;-69
2022/12/06 01:10:24;;;;;;;114.17;25.33;;;;;;;2.78;100.00;148147.28;5053800;28;20013;-69
2022/12/06 01:12:50;;;;;;;108.07;25.10;;;;;;;2.82;100.00;148157.59;5049895;28;20079;-68
2022/12/06 01:15:15;;;;;;;133.83;26.00;;;;;;;2.85;100.00;148165.31;5051603;28;20029;-69
2022/12/06 01:17:40;;;;;;;109.33;24.10;;;;;;;2.79;100.00;148151.19;5053885;28;20032;-69
2022/12/06 01:20:07;;;;;;;111.93;24.60;;;;;;;2.88;100.00;148174.31;5052908;28;20029;-69
2022/12/06 01:22:32;;;;;;;107.17;25.03;;;;;;;2.89;100.00;148176.88;5053362;28;20104;-69
2022/12/06 01:24:58;;;;;;;128.43;24.77;;;;;;;2.92;100.00;148184.63;5052966;28;20543;-69
2022/12/06 01:27:23;;;;;;;125.93;25.00;;;;;;;2.93;100.00;148187.19;5050990;28;20017;-69
2022/12/06 01:29:48;;;;;;;125.83;25.20;;;;;;;2.94;100.00;148189.75;5043754;28;20492;-69
2022/12/06 01:32:14;;;;;;;124.33;24.17;;;;;;;3.02;100.00;148207.75;5047795;28;20013;-69
2022/12/06 01:34:39;;;;;;;116.03;24.27;;;;;;;3.02;100.00;148207.75;5048010;28;20036;-69
2022/12/06 01:37:05;;;;;;;124.77;23.90;;;;;;;3.03;100.00;148211.66;5046101;28;20028;-68
2022/12/06 01:39:30;;;;;;;138.00;24.80;;;;;;;3.07;100.00;148221.94;5049083;28;20057;-69
2022/12/06 01:41:56;;;;;;;108.47;23.77;;;;;;;3.06;100.00;148219.34;5048882;28;20621;-69
2022/12/06 01:44:56;;;;;;;113.50;24.60;;;;;;;3.15;100.00;148241.19;5043718;28;20362;-69
2022/12/06 01:47:32;;;;;;;108.93;23.57;;;;;;;3.15;100.00;148242.53;5014261;28;20037;-70
2022/12/06 01:50:18;;;;;;;115.60;23.67;;;;;;;3.17;100.00;148246.38;5038635;28;20109;-69
2022/12/06 01:52:52;;;;;;;108.20;22.50;;;;;;;3.19;100.00;148251.53;5041194;28;20103;-69
2022/12/06 01:55:19;;;;;;;96.97;21.23;;;;;;;3.18;100.00;148248.94;5037686;28;20048;-69
2022/12/06 01:57:46;;;;;;;114.87;23.37;;;;;;;3.18;100.00;148250.25;5034534;28;20108;-69
2022/12/06 02:00:12;;;;;;;125.20;23.87;;;;;;;3.22;100.00;148259.22;5038029;28;20032;-69
2022/12/06 02:02:38;;;;;;;105.13;22.70;;;;;;;3.22;100.00;148259.22;5035519;22;20046;-63
2022/12/06 02:05:04;;;;;;;134.30;24.67;;;;;;;3.27;100.00;148272.13;5003713;28;20112;-63
2022/12/06 02:07:30;;;;;;;110.80;22.70;;;;;;;3.26;100.00;148269.50;5009553;28;20022;-63
2022/12/06 02:09:56;;;;;;;121.50;24.67;;;;;;;3.31;100.00;148281.13;5028791;28;20397;-63
2022/12/06 02:12:21;;;;;;;107.77;23.30;;;;;;;3.31;100.00;148282.41;5011873;28;20022;-63
2022/12/06 02:14:51;;;;;;;112.37;23.57;;;;;;;3.36;100.00;148293.97;5000632;28;20034;-62
2022/12/06 02:17:48;;;;;;;114.53;22.50;;;;;;;3.36;100.00;148295.25;5012952;28;20087;-63
2022/12/06 02:20:39;;;;;;;137.80;24.17;;;;;;;3.43;100.00;148313.28;5002263;28;20037;-63
2022/12/06 02:23:35;;;;;;;103.68;21.38;;;;;;;3.45;100.00;148317.16;5018589;28;20029;-63
2022/12/06 02:26:34;;;;;;;104.70;20.40;;;;;;;3.48;100.00;148326.16;5006808;28;20045;-63
2022/12/06 02:29:09;;;;;;;94.47;20.33;;;;;;;3.52;100.00;148336.47;5008089;28;20018;-63
2022/12/06 02:31:55;;;;;;;94.10;18.53;;;;;;;3.61;100.00;148358.31;5008231;28;20076;-63
2022/12/06 02:34:29;;;;;;;88.37;18.50;;;;;;;3.71;100.00;148382.78;5009344;28;20079;-63
2022/12/06 02:37:00;;;;;;;83.03;17.17;;;;;;;3.75;100.00;148394.34;5009384;28;20040;-63
2022/12/06 02:39:45;;;;;;;78.20;15.33;;;;;;;3.83;100.00;148413.69;5007885;28;20026;-63
2022/12/06 02:42:17;;;;;;;90.93;15.30;;;;;;;3.93;100.00;148439.44;5008992;28;20030;-63
2022/12/06 02:45:12;;;;;;;78.93;14.18;;;;;;;3.92;100.00;148436.88;5010930;28;20045;-64
2022/12/06 02:47:37;;;;;;;68.80;13.23;;;;;;;3.94;100.00;148442.03;5004207;28;20056;-63
2022/12/06 02:50:09;;;;;;;79.53;14.30;;;;;;;3.98;100.00;148452.31;5011160;28;20029;-63
2022/12/06 02:52:40;;;;;;;92.80;14.83;;;;;;;4.01;100.00;148460.06;5019344;28;20450;-63
2022/12/06 02:55:07;;;;;;;76.93;14.87;;;;;;;4.06;100.00;148471.66;5014460;28;20175;-63
2022/12/06 02:57:40;;;;;;;94.23;14.97;;;;;;;4.07;100.00;148475.50;4993373;28;20030;-63
2022/12/06 03:00:27;;;;;;;80.00;14.73;;;;;;;4.13;100.00;148488.41;4999871;28;20038;-63
2022/12/06 03:03:08;;;;;;;73.73;13.77;;;;;;;4.15;100.00;148493.56;4992828;28;20038;-64
2022/12/06 03:05:57;;;;;;;81.35;14.10;;;;;;;4.12;100.00;148487.13;5002650;28;20115;-63
2022/12/06 03:08:38;;;;;;;69.57;12.83;;;;;;;4.14;100.00;148492.25;4997812;28;20536;-63
2022/12/06 03:11:04;;;;;;;83.33;15.93;;;;;;;4.17;100.00;148499.97;5006501;28;20476;-63
2022/12/06 03:13:47;;;;;;;84.97;14.37;;;;;;;4.19;100.00;148503.84;4995940;28;20036;-64
2022/12/06 03:16:23;;;;;;;94.83;15.07;;;;;;;4.20;100.00;148506.41;5008188;28;20597;-63
2022/12/06 03:18:58;;;;;;;95.40;15.53;;;;;;;4.17;100.00;148498.69;5003030;28;20470;-63
2022/12/06 03:21:36;;;;;;;117.20;16.97;;;;;;;4.21;100.00;148508.97;4993111;28;20033;-64
2022/12/06 03:24:07;;;;;;;112.17;17.00;;;;;;;4.20;100.00;148506.41;4992744;28;20034;-63
2022/12/06 03:26:33;;;;;;;115.33;18.83;;;;;;;4.19;100.00;148503.84;4996277;28;20401;-63
2022/12/06 03:29:00;;;;;;;106.40;17.90;;;;;;;4.22;100.00;148512.84;5003067;28;20766;-63
2022/12/06 03:31:29;;;;;;;106.83;17.73;;;;;;;4.24;100.00;148516.69;4992957;28;20034;-64
2022/12/06 03:33:59;;;;;;;92.33;15.63;;;;;;;4.24;100.00;148516.69;5005213;28;20057;-63
2022/12/06 03:36:26;;;;;;;82.93;15.70;;;;;;;4.24;100.00;148516.69;5010161;28;20034;-64
2022/12/06 03:38:59;;;;;;;84.17;13.57;;;;;;;4.22;100.00;148511.56;5012218;28;20536;-63
2022/12/06 03:41:31;;;;;;;90.37;15.23;;;;;;;4.25;100.00;148519.31;5005517;28;20037;-63
2022/12/06 03:43:58;;;;;;;74.07;14.37;;;;;;;4.24;100.00;148518.03;4994685;28;20504;-63
2022/12/06 03:46:29;;;;;;;80.33;14.97;;;;;;;4.26;100.00;148521.88;4993633;28;20038;-64
2022/12/06 03:49:05;;;;;;;79.50;14.27;;;;;;;4.24;100.00;148516.69;4998577;28;20461;-63
2022/12/06 03:51:33;;;;;;;85.40;14.67;;;;;;;4.26;100.00;148523.19;5012277;28;20032;-63
2022/12/06 03:54:03;;;;;;;72.27;13.40;;;;;;;4.27;100.00;148521.84;5010593;28;20026;-63
2022/12/06 03:56:30;;;;;;;79.27;14.53;;;;;;;4.22;100.00;147166.03;5010256;28;20033;-62
2022/12/06 03:58:55;;;;;;;72.33;14.23;;;;;;;4.25;100.00;146502.44;4992800;28;20022;-62
2022/12/06 04:01:21;;;;;;;75.10;13.93;;;;;;;4.20;100.00;145483.09;5011027;28;20097;-63
2022/12/06 04:03:46;;;;;;;69.80;14.70;;;;;;;4.21;100.00;146492.25;5010927;28;20030;-62
2022/12/06 04:06:12;;;;;;;73.20;13.77;;;;;;;4.25;100.00;147509.44;5010873;28;20025;-63
2022/12/06 04:08:38;;;;;;;74.77;13.80;;;;;;;4.24;100.00;147843.88;5011928;28;20025;-63
2022/12/06 04:11:04;;;;;;;69.53;13.50;;;;;;;4.24;100.00;148178.28;5010594;28;20385;-62
2022/12/06 04:13:30;;;;;;;65.33;13.37;;;;;;;4.26;100.00;148183.47;4997538;28;20390;-62
2022/12/06 04:16:00;;;;;;;77.07;15.00;;;;;;;4.21;100.00;148507.66;5008654;28;20429;-63
2022/12/06 04:18:26;;;;;;;69.50;12.83;;;;;;;4.23;100.00;148511.50;5011990;28;20108;-62
2022/12/06 04:23:43;;;;;;;66.93;13.17;;;;;;;4.21;100.00;148506.34;5011983;28;20064;-63
2022/12/06 04:26:11;;;;;;;69.80;13.33;;;;;;;4.23;100.00;148511.50;4993347;28;20105;-63
2022/12/06 04:39:34;;;;;;;58.93;11.10;;;;;;;4.19;100.00;148501.22;4993411;28;20069;-62
2022/12/06 04:44:43;;;;;;;50.10;10.33;;;;;;;4.18;100.00;148499.94;5003602;28;20036;-62
2022/12/06 04:47:09;;;;;;;52.30;10.43;;;;;;;4.19;100.00;148501.22;5011403;28;20026;-63
2022/12/06 04:49:35;;;;;;;50.37;10.37;;;;;;;4.20;100.00;148506.41;5011483;28;20022;-63
2022/12/06 04:52:01;;;;;;;50.00;11.17;;;;;;;4.22;100.00;148511.56;5011654;28;20101;-63
2022/12/06 04:54:28;;;;;;;47.23;10.10;;;;;;;4.22;100.00;148511.56;5011524;28;20038;-63
2022/12/06 04:56:55;;;;;;;51.97;11.47;;;;;;;4.21;100.00;148508.97;5015479;28;20025;-62
2022/12/06 04:59:20;;;;;;;52.37;11.37;;;;;;;4.20;100.00;148506.41;5003374;28;20022;-62
2022/12/06 05:01:46;;;;;;;48.83;10.47;;;;;;;4.19;100.00;148503.84;4995105;28;20096;-62
2022/12/06 05:04:11;;;;;;;53.83;11.23;;;;;;;4.20;100.00;148506.41;4996741;28;20040;-62
2022/12/06 05:06:36;;;;;;;60.07;11.00;;;;;;;4.22;100.00;148511.56;5015056;28;20025;-62
2022/12/06 05:09:03;;;;;;;52.83;11.50;;;;;;;4.24;100.00;148518.03;5012206;28;20359;-63
2022/12/06 05:11:28;;;;;;;55.30;11.90;;;;;;;4.24;100.00;148516.69;5002158;28;20037;-62
2022/12/06 05:13:53;;;;;;;67.63;15.13;;;;;;;4.27;100.00;148524.47;5005325;28;20037;-62
2022/12/06 05:16:19;;;;;;;62.40;12.63;;;;;;;4.24;100.00;148516.69;5008852;28;20059;-63
2022/12/06 05:18:44;;;;;;;56.53;11.80;;;;;;;4.26;100.00;148521.88;5014337;28;20026;-62
2022/12/06 05:21:13;;;;;;;65.17;13.00;;;;;;;4.28;100.00;148528.31;5012776;28;20109;-63
2022/12/06 05:23:39;;;;;;;63.33;12.80;;;;;;;4.28;100.00;148527.03;5011870;28;20029;-63
2022/12/06 05:26:08;;;;;;;57.50;11.83;;;;;;;4.24;100.00;148516.69;5014215;28;20076;-62
2022/12/06 05:28:34;;;;;;;56.03;13.10;;;;;;;4.25;100.00;148519.31;5004979;28;20482;-62
2022/12/06 05:30:59;;;;;;;63.90;13.43;;;;;;;4.22;100.00;148511.56;5014332;28;20109;-62
2022/12/06 05:33:25;;;;;;;66.43;13.30;;;;;;;4.23;100.00;148515.41;5014337;28;20106;-62
2022/12/06 05:35:51;;;;;;;54.87;12.97;;;;;;;4.21;100.00;148510.28;4995477;28;20049;-62
2022/12/06 05:38:17;;;;;;;50.97;12.40;;;;;;;4.20;100.00;148506.41;4994494;28;20025;-62
2022/12/06 05:40:44;;;;;;;55.77;12.97;;;;;;;4.23;100.00;148514.13;4996677;28;20490;-62
2022/12/06 05:43:09;;;;;;;43.13;10.73;;;;;;;4.15;100.00;148494.84;4993968;28;20030;-63
2022/12/06 05:45:35;;;;;;;38.47;10.37;;;;;;;4.16;100.00;148496.13;4998043;28;20112;-62
2022/12/06 05:48:01;;;;;;;47.30;10.10;;;;;;;4.15;100.00;148493.56;5009627;28;20057;-62
2022/12/06 05:50:26;;;;;;;32.77;9.43;;;;;;;4.14;100.00;148492.25;5014032;28;20061;-63
2022/12/06 05:52:56;;;;;;;38.60;10.27;;;;;;;4.17;100.00;148499.97;5014153;28;20026;-62
2022/12/06 05:55:22;;;;;;;43.43;10.47;;;;;;;4.15;100.00;148494.84;5010409;28;20034;-62
2022/12/06 05:57:47;;;;;;;42.40;9.97;;;;;;;4.13;100.00;148488.41;5013910;28;20283;-62
2022/12/06 06:00:14;;;;;;;42.27;10.73;;;;;;;4.14;100.00;148490.97;5012419;28;20061;-62
2022/12/06 06:02:39;;;;;;;39.30;10.30;;;;;;;4.10;100.00;148481.94;5012893;28;20545;-62
2022/12/06 06:05:05;;;;;;;45.27;11.00;;;;;;;4.13;100.00;148488.41;5011874;28;20121;-62
2022/12/06 06:07:31;;;;;;;44.37;11.10;;;;;;;4.13;100.00;148488.41;5012268;28;20026;-62
2022/12/06 06:09:56;;;;;;;41.30;11.50;;;;;;;4.13;100.00;148488.41;5005250;28;20023;-62
2022/12/06 06:12:22;;;;;;;43.97;11.40;;;;;;;4.05;100.00;148469.06;4993964;28;20463;-62
2022/12/06 06:14:47;;;;;;;37.27;10.67;;;;;;;4.08;100.00;148478.06;4993223;28;20038;-62
2022/12/06 06:17:12;;;;;;;41.47;11.60;;;;;;;4.11;100.00;148485.78;4993768;28;20028;-62
2022/12/06 06:19:38;;;;;;;31.07;9.67;;;;;;;4.05;100.00;148469.06;4994319;28;20018;-62
2022/12/06 06:22:03;;;;;;;31.03;8.90;;;;;;;4.01;100.00;148460.06;4993384;28;20037;-62
2022/12/06 06:24:35;;;;;;;37.50;9.40;;;;;;;4.06;100.00;148471.66;5000353;28;20030;-62
2022/12/06 06:27:02;;;;;;;33.08;9.73;;;;;;;4.07;100.00;148475.50;5013132;28;20026;-62
2022/12/06 06:29:27;;;;;;;36.73;10.73;;;;;;;4.06;100.00;148472.94;5012482;28;20108;-62
2022/12/06 06:31:53;;;;;;;37.37;10.63;;;;;;;4.08;100.00;148476.78;5013707;28;20118;-62
2022/12/06 06:34:19;;;;;;;32.90;11.20;;;;;;;4.10;100.00;148481.94;5006269;28;20030;-63
2022/12/06 06:36:44;;;;;;;35.87;11.73;;;;;;;4.07;100.00;148474.22;4994905;28;20158;-63
2022/12/06 06:39:09;;;;;;;41.33;12.37;;;;;;;4.03;100.00;148463.94;5000202;28;20401;-62
2022/12/06 06:41:35;;;;;;;40.63;12.73;;;;;;;4.03;100.00;148465.22;5012910;28;20048;-62
2022/12/06 06:44:00;;;;;;;38.57;12.23;;;;;;;3.99;100.00;148454.88;5013041;28;20030;-62
2022/12/06 06:46:25;;;;;;;35.13;11.87;;;;;;;4.02;100.00;148462.66;4999571;28;20509;-62
2022/12/06 06:48:51;;;;;;;34.27;11.60;;;;;;;3.98;100.00;148452.31;5012686;28;20018;-63
2022/12/06 06:51:16;;;;;;;34.97;10.87;;;;;;;4.00;100.00;148456.22;5012842;28;20393;-62
2022/12/06 06:53:42;;;;;;;33.37;11.30;;;;;;;3.98;100.00;148451.03;4997700;28;20030;-63
2022/12/06 06:56:08;;;;;;;29.67;10.23;;;;;;;3.99;100.00;148454.88;4993761;28;20034;-62
2022/12/06 06:58:33;;;;;;;35.93;10.50;;;;;;;3.96;100.00;148447.16;5008820;28;20041;-62
2022/12/06 07:01:00;;;;;;;34.93;11.33;;;;;;;3.98;100.00;148452.31;5011728;28;20026;-62
2022/12/06 07:03:27;;;;;;;35.10;10.70;;;;;;;3.96;100.00;148447.16;5012233;28;20168;-62
2022/12/06 07:05:59;;;;;;;39.13;11.07;;;;;;;3.95;100.00;148444.59;5000264;28;20105;-62
2022/12/06 07:08:26;;;;;;;32.97;10.27;;;;;;;3.90;100.00;148431.75;4992420;28;20030;-62
2022/12/06 07:10:53;;;;;;;31.20;10.80;;;;;;;3.85;100.00;148418.84;4993413;28;20041;-62
2022/12/06 07:13:19;;;;;;;33.60;11.77;;;;;;;3.87;100.00;148422.69;5000564;28;20033;-62
2022/12/06 07:15:45;;;;;;;36.23;11.70;;;;;;;3.89;100.00;148429.16;5001764;28;20033;-62
2022/12/06 07:18:10;;;;;;;37.83;12.13;;;;;;;3.84;100.00;148416.25;4994973;28;20037;-61
2022/12/06 07:20:36;;;;;;;39.90;11.20;;;;;;;3.83;100.00;148414.97;4992890;28;20033;-62
2022/12/06 07:23:01;;;;;;;33.33;11.63;;;;;;;3.87;100.00;148423.97;4992314;28;20022;-62
2022/12/06 07:25:27;;;;;;;30.70;11.17;;;;;;;3.84;100.00;148416.25;4999148;28;20021;-62
2022/12/06 07:27:52;;;;;;;27.27;9.97;;;;;;;3.80;100.00;148405.97;4996126;28;20022;-62
2022/12/06 07:30:17;;;;;;;29.70;9.87;;;;;;;3.80;100.00;148405.97;4995710;28;20110;-62
2022/12/06 07:32:43;;;;;;;28.17;9.93;;;;;;;3.81;100.00;148408.53;5012482;28;20029;-62
2022/12/06 07:35:09;;;;;;;26.23;10.27;;;;;;;3.80;100.00;148407.25;5010453;28;20388;-63
2022/12/06 07:37:35;;;;;;;28.23;9.37;;;;;;;3.78;100.00;148402.13;4992425;28;20407;-62
2022/12/06 07:40:00;;;;;;;24.23;9.20;;;;;;;3.82;100.00;148411.13;5000157;28;20153;-62
2022/12/06 07:45:11;;;;;;;23.70;8.73;;;;;;;3.80;100.00;148405.97;4995310;28;20093;-62
2022/12/06 07:47:42;;;;;;;27.17;10.40;;;;;;;3.81;100.00;148408.53;5003368;28;20049;-62
2022/12/06 07:50:14;;;;;;;23.23;9.10;;;;;;;3.79;100.00;148403.41;5012171;28;20477;-61
2022/12/06 07:52:39;;;;;;;24.97;9.57;;;;;;;3.81;100.00;148409.84;5009885;28;20068;-62
2022/12/06 07:55:06;;;;;;;29.07;9.17;;;;;;;3.77;100.00;148399.56;4992647;28;20050;-62
2022/12/06 07:57:32;;;;;;;23.43;9.07;;;;;;;3.79;100.00;148403.41;4992286;28;20045;-62
2022/12/06 07:59:58;;;;;;;26.53;8.70;;;;;;;3.75;100.00;148394.34;4992945;28;20018;-62
2022/12/06 08:02:25;;;;;;;28.97;9.87;;;;;;;3.79;100.00;148403.41;4991948;28;20038;-62
2022/12/06 08:04:51;;;;;;;23.87;9.23;;;;;;;3.84;100.00;148416.25;4992076;28;20055;-63
2022/12/06 08:07:17;;;;;;;28.30;9.00;;;;;;;3.82;100.00;148411.13;5009624;28;20085;-62
2022/12/06 08:09:43;;;;;;;26.37;9.60;;;;;;;3.89;100.00;148429.16;5012019;28;20018;-62
2022/12/06 08:12:08;;;;;;;32.60;10.00;;;;;;;3.89;100.00;148427.88;4995315;28;20030;-62
2022/12/06 08:14:34;;;;;;;28.70;9.87;;;;;;;3.88;100.00;148426.59;4992118;28;20023;-62
2022/12/06 08:17:00;;;;;;;30.17;9.23;;;;;;;3.84;100.00;148416.25;4992444;28;20037;-62
2022/12/06 08:19:25;;;;;;;32.73;10.53;;;;;;;3.93;100.00;148439.44;4992089;28;20034;-62
2022/12/06 08:21:51;;;;;;;31.10;10.50;;;;;;;3.97;100.00;148449.72;4991719;28;20037;-62
2022/12/06 08:24:16;;;;;;;31.10;10.77;;;;;;;4.07;100.00;148475.50;4992283;28;20076;-62
2022/12/06 08:26:41;;;;;;;26.97;10.47;;;;;;;4.08;100.00;148476.78;5002583;28;20374;-62
2022/12/06 08:29:07;;;;;;;30.13;11.77;;;;;;;4.16;100.00;148497.41;5013425;28;20053;-62
2022/12/06 08:31:35;;;;;;;29.80;13.43;;;;;;;4.19;100.00;148503.84;5008541;28;20433;-62
2022/12/06 08:34:02;;;;;;;26.63;10.40;;;;;;;4.27;100.00;148525.75;4995160;28;20050;-62
2022/12/06 08:36:27;;;;;;;27.13;12.37;;;;;;;4.28;100.00;148527.03;4995776;28;20034;-62
2022/12/06 08:38:54;;;;;;;30.67;15.67;;;;;;;4.33;100.00;148541.19;4995575;28;20088;-62
2022/12/06 08:44:05;;;;;;;24.67;11.80;;;;;;;4.29;100.00;148529.59;5015204;28;20033;-62
2022/12/06 08:46:32;;;;;;;25.83;10.83;;;;;;;4.31;100.00;148536.03;5010090;28;20494;-62
2022/12/06 08:48:58;;;;;;;26.10;11.17;;;;;;;4.38;100.00;148552.81;4995720;28;20037;-62
2022/12/06 08:51:23;;;;;;;24.87;10.00;;;;;;;4.34;100.00;148542.47;4996353;28;20022;-62
2022/12/06 08:53:51;;;;;;;23.30;10.33;;;;;;;4.37;100.00;148551.53;4997549;28;20390;-62
2022/12/06 08:56:17;;;;;;;21.27;9.23;;;;;;;4.43;100.00;148565.66;5002592;28;20488;-62
2022/12/06 08:58:42;;;;;;;23.80;10.23;;;;;;;4.46;100.00;148572.09;5015100;28;20013;-62
2022/12/06 09:01:14;;;;;;;20.77;9.60;;;;;;;4.55;100.00;148596.59;5015065;28;20436;-62
2022/12/06 09:03:39;;;;;;;;;;;;;;;4.53;100.00;148591.44;4995554;28;20390;-62
2022/12/06 09:06:05;;;;;;;20.83;9.23;;;;;;;4.51;100.00;148586.28;4995577;28;19921;-62
2022/12/06 09:08:33;;;;;;;24.03;9.57;;;;;;;4.65;100.00;148622.38;5004555;28;20026;-62
2022/12/06 09:10:58;;;;;;;21.90;9.83;;;;;;;4.69;100.00;148631.38;4998455;28;20024;-62
2022/12/06 09:13:24;;;;;;;20.60;9.70;;;;;;;4.70;100.00;148635.22;5011652;28;20026;-62
2022/12/06 09:15:49;;;;;;;24.93;9.40;;;;;;;4.81;100.00;148661.00;5014639;28;20543;-62
2022/12/06 09:18:14;;;;;;;22.80;9.90;;;;;;;4.81;100.00;148662.28;4999235;28;20331;-62
2022/12/06 09:20:41;;;;;;;22.17;9.87;;;;;;;4.84;100.00;148668.72;4994454;28;20053;-62
2022/12/06 09:23:06;;;;;;;22.27;10.33;;;;;;;4.91;100.00;148686.78;5012715;28;20100;-62
2022/12/06 09:25:32;;;;;;;20.70;9.33;;;;;;;4.96;100.00;148699.66;5007204;28;20032;-62
2022/12/06 09:27:58;;;;;;;19.00;8.90;;;;;;;4.93;100.00;148693.22;4997845;28;20032;-62
2022/12/06 09:30:24;;;;;;;17.60;7.53;;;;;;;4.78;100.00;148653.28;5013290;28;20029;-62
2022/12/06 09:32:50;;;;;;;19.60;8.80;;;;;;;4.84;100.00;148670.03;5016829;28;20116;-61
2022/12/06 09:35:16;;;;;;;17.40;8.50;;;;;;;4.98;100.00;148704.84;5002311;28;20044;-63
2022/12/06 09:37:41;;;;;;;19.80;9.40;;;;;;;5.01;100.00;148712.56;5009187;28;20104;-62
2022/12/06 09:40:31;;;;;;;19.87;8.80;;;;;;;5.00;100.00;148710.00;5002798;28;20025;-62
2022/12/06 09:43:08;;;;;;;18.77;8.27;;;;;;;4.94;100.00;148694.50;5000326;28;20481;-63
2022/12/06 09:46:08;;;;;;;15.97;8.27;;;;;;;5.11;100.00;148737.09;5008832;28;20562;-63
2022/12/06 09:49:02;;;;;;;17.03;7.73;;;;;;;5.09;100.00;148733.22;4999442;28;20033;-62
2022/12/06 09:52:24;;;;;;;17.10;7.93;;;;;;;5.12;100.00;148740.94;5012725;28;20040;-62
2022/12/06 09:55:16;;;;;;;17.33;6.87;;;;;;;5.13;100.00;148742.22;5004868;28;20065;-62
2022/12/06 09:57:53;;;;;;;16.02;7.50;;;;;;;5.10;100.00;148734.50;5014414;28;20207;-62
2022/12/06 10:00:21;;;;;;;17.50;7.87;;;;;;;5.19;100.00;148757.66;5001713;28;20041;-62
2022/12/06 10:03:26;;;;;;;21.63;8.20;;;;;;;5.28;100.00;148780.88;5020362;28;20577;-62
2022/12/06 10:06:04;;;;;;;13.53;7.20;;;;;;;5.46;100.00;148826.03;5020524;28;20511;-62
2022/12/06 10:09:04;;;;;;;15.10;6.90;;;;;;;5.43;100.00;148819.56;5012447;28;20489;-62
2022/12/06 10:11:41;;;;;;;14.47;7.20;;;;;;;5.47;100.00;148828.63;5006445;28;20029;-62
2022/12/06 10:14:36;;;;;;;13.10;6.83;;;;;;;5.67;100.00;148880.16;5013596;28;20022;-63
2022/12/06 10:17:30;;;;;;;14.97;6.97;;;;;;;5.60;100.00;148862.13;4999303;28;20038;-62
2022/12/06 10:20:12;;;;;;;15.00;6.57;;;;;;;5.63;100.00;148869.88;5012827;28;20810;-62
2022/12/06 10:23:00;;;;;;;12.43;6.17;;;;;;;5.58;100.00;148857.00;5009751;28;20124;-63
2022/12/06 10:25:38;;;;;;;10.80;5.27;;;;;;;5.80;100.00;148913.69;5001840;28;20046;-63
2022/12/06 10:28:34;;;;;;;9.23;5.23;;;;;;;5.68;100.00;148881.47;5011156;28;20080;-63
2022/12/06 10:31:19;;;;;;;8.63;4.87;;;;;;;5.76;100.00;148902.09;5010641;28;20029;-63
2022/12/06 10:33:54;;;;;;;9.77;5.17;;;;;;;5.85;100.00;148925.34;5003489;28;20037;-63
2022/12/06 10:36:45;;;;;;;9.37;5.27;;;;;;;5.68;100.00;148882.75;5024884;28;20085;-63
2022/12/06 10:39:24;;;;;;;12.63;6.07;;;;;;;5.54;100.00;148847.94;5011238;28;20069;-63
2022/12/06 10:42:10;;;;;;;17.03;6.40;;;;;;;5.45;100.00;148823.41;5006263;28;20042;-63
2022/12/06 10:47:02;;;;;;;11.30;6.00;;;;;;;5.49;100.00;148835.06;5005414;28;20395;-62
2022/12/06 10:47:58;;;;;;;13.43;7.00;;;;;;;5.54;100.00;148846.66;5015122;28;20037;-63
2022/12/06 10:50:33;;;;;;;12.27;6.80;;;;;;;5.53;100.00;148844.06;5005248;28;20037;-63
2022/12/06 10:53:10;;;;;;;10.90;6.00;;;;;;;5.43;100.00;148818.28;5012445;28;20756;-63
2022/12/06 10:55:46;;;;;;;11.40;5.87;;;;;;;5.45;100.00;148823.41;5012961;28;20032;-62
2022/12/06 10:58:24;;;;;;;10.67;5.70;;;;;;;5.42;100.00;148816.97;5013340;28;20391;-62
2022/12/06 11:00:58;;;;;;;9.00;5.20;;;;;;;5.60;100.00;148862.13;5020867;28;20612;-63
2022/12/06 11:03:54;;;;;;;12.30;5.07;;;;;;;5.63;100.00;148869.88;5018446;28;20741;-63
2022/12/06 11:06:31;;;;;;;9.97;5.20;;;;;;;5.51;100.00;148838.91;5003488;28;20030;-62
2022/12/06 11:09:04;;;;;;;8.50;4.60;;;;;;;5.50;100.00;148836.34;5004421;28;20443;-62
2022/12/06 11:11:34;;;;;;;11.80;5.63;;;;;;;5.67;100.00;148880.16;5014530;28;20041;-62
2022/12/06 11:14:15;;;;;;;10.37;5.03;;;;;;;5.55;100.00;148850.50;5007750;28;20120;-63
2022/12/06 11:16:50;;;;;;;9.25;4.70;;;;;;;5.71;100.00;148890.53;5010561;28;20108;-62
2022/12/06 11:19:37;;;;;;;10.53;5.73;;;;;;;5.82;100.00;148918.91;5006570;28;20030;-62
2022/12/06 11:22:21;;;;;;;9.03;5.50;;;;;;;5.64;100.00;148872.44;5021885;28;20037;-62
2022/12/06 11:25:18;;;;;;;8.70;5.10;;;;;;;5.53;100.00;148845.34;5009730;28;20584;-62
2022/12/06 11:27:53;;;;;;;8.37;4.77;;;;;;;5.52;100.00;148841.50;5008833;28;20440;-62
2022/12/06 11:30:19;;;;;;;8.63;4.47;;;;;;;5.55;100.00;148849.22;5013026;28;20401;-62
2022/12/06 11:32:49;;;;;;;10.27;4.80;;;;;;;5.77;100.00;148904.69;5019526;28;20033;-62
2022/12/06 11:35:21;;;;;;;9.33;5.37;;;;;;;5.82;100.00;148918.91;5016301;28;20029;-62
2022/12/06 11:37:53;;;;;;;9.67;5.27;;;;;;;5.85;100.00;148926.63;5009349;28;20608;-62
2022/12/06 11:40:25;;;;;;;;;;;;;;;5.97;100.00;148955.06;5010103;28;20030;-61
2022/12/06 11:42:51;;;;;;;11.55;5.10;;;;;;;5.82;100.00;148917.59;5006131;28;20383;-62
2022/12/06 11:45:31;;;;;;;9.00;4.10;;;;;;;5.85;100.00;148925.34;5005226;28;20081;-62
2022/12/06 11:48:00;;;;;;;9.53;3.67;;;;;;;5.71;100.00;148890.53;5014013;28;20519;-62
2022/12/06 11:50:33;;;;;;;6.33;3.63;;;;;;;5.70;100.00;148887.94;5000068;28;20073;-62